Williamsport, Indiana
Current Conditions -  °F | °C
As of 4:15 AM on Wednesday 22 Oct 2014 (Local Time) from KDNV Reporting Station
Clear Clear  
Wind Chill: 37°   Ceiling: Unl
Heat Index: 37°   Visibility: 10mi
Dew Point: 35°   Wind: 3mph
Humidity: 91%   Direction: 40°NE
Pressure: 30.23"   Gusts: NA
Location:  40.29°N, 87.29°W
Report Text: KDNV 220815Z AUTO 04003KT 10SM CLR 03/02 A3023 RMK AO2 T00300017
Loading
Personal Weather Stations






























Interactive Weather Map New forecast layout! Learn more

10-Day Weather Forecast

Advertisements
Track Severe Weather on mobile